Private Wetterstation Sandau
Wetterdaten: Freitag, 13.04.2012
Datum Zeit Temp. A. Feuchte A. Luftdruck Regen Wind Richtung Richtung Taupunkt Windchill
13.04.2012 00:01 8,1 C 84 % 1002,7 hPa 0,0 l/m 0,0 km/h (0 Bft) O 90 5,6 C 8,1 C
13.04.2012 00:06 8,1 C 84 % 1002,7 hPa 0,0 l/m 1,4 km/h (1 Bft) O-NO 67 5,6 C 8,1 C
13.04.2012 00:11 8,1 C 84 % 1002,8 hPa 0,0 l/m 0,0 km/h (0 Bft) O-NO 67 5,6 C 8,1 C
13.04.2012 00:16 8,1 C 84 % 1002,8 hPa 0,0 l/m 0,0 km/h (0 Bft) O-NO 67 5,6 C 8,1 C
13.04.2012 00:21 8,1 C 84 % 1002,7 hPa 0,0 l/m 1,8 km/h (1 Bft) O-NO 67 5,6 C 8,1 C
13.04.2012 00:26 8,1 C 84 % 1002,6 hPa 0,0 l/m 2,2 km/h (1 Bft) O 90 5,6 C 8,1 C
13.04.2012 00:31 8,1 C 84 % 1002,7 hPa 0,0 l/m 0,0 km/h (0 Bft) O-SO 112 5,6 C 8,1 C
13.04.2012 00:36 8,1 C 85 % 1002,7 hPa 0,0 l/m 2,5 km/h (1 Bft) O-SO 112 5,7 C 8,1 C
13.04.2012 00:41 8,0 C 84 % 1002,7 hPa 0,0 l/m 3,2 km/h (1 Bft) O 90 5,5 C 8,0 C
13.04.2012 00:46 7,9 C 85 % 1002,8 hPa 0,0 l/m 3,6 km/h (1 Bft) O-SO 112 5,5 C 7,9 C
13.04.2012 00:51 7,9 C 85 % 1002,7 hPa 0,0 l/m 2,5 km/h (1 Bft) O 90 5,5 C 7,9 C
13.04.2012 00:56 7,9 C 85 % 1002,7 hPa 0,0 l/m 1,4 km/h (1 Bft) O-SO 112 5,5 C 7,9 C
13.04.2012 01:01 7,9 C 85 % 1002,7 hPa 0,0 l/m 4,3 km/h (1 Bft) O-SO 112 5,5 C 7,9 C
13.04.2012 01:06 7,9 C 86 % 1002,7 hPa 0,0 l/m 5,4 km/h (1 Bft) O-SO 112 5,7 C 7,2 C
13.04.2012 01:11 7,9 C 86 % 1002,7 hPa 0,0 l/m 4,3 km/h (1 Bft) SO 135 5,7 C 7,9 C
13.04.2012 01:16 7,8 C 86 % 1002,7 hPa 0,0 l/m 1,4 km/h (1 Bft) SO 135 5,6 C 7,8 C
13.04.2012 01:21 7,8 C 86 % 1002,6 hPa 0,0 l/m 3,6 km/h (1 Bft) SO 135 5,6 C 7,8 C
13.04.2012 01:26 7,8 C 86 % 1002,6 hPa 0,0 l/m 4,0 km/h (1 Bft) SO 135 5,6 C 7,8 C
13.04.2012 01:31 7,8 C 86 % 1002,5 hPa 0,0 l/m 0,0 km/h (0 Bft) O-SO 112 5,6 C 7,8 C
13.04.2012 01:36 7,6 C 86 % 1002,6 hPa 0,0 l/m 2,2 km/h (1 Bft) O-SO 112 5,4 C 7,6 C
13.04.2012 01:41 7,6 C 86 % 1002,6 hPa 0,0 l/m 0,0 km/h (0 Bft) O-SO 112 5,4 C 7,6 C
13.04.2012 01:46 7,6 C 86 % 1002,6 hPa 0,0 l/m 2,5 km/h (1 Bft) O-SO 112 5,4 C 7,6 C
13.04.2012 01:51 7,5 C 86 % 1002,7 hPa 0,0 l/m 3,2 km/h (1 Bft) SO 135 5,3 C 7,5 C
13.04.2012 01:56 7,5 C 86 % 1002,7 hPa 0,0 l/m 0,0 km/h (0 Bft) O 90 5,3 C 7,5 C
13.04.2012 02:01 7,4 C 86 % 1002,5 hPa 0,0 l/m 0,0 km/h (0 Bft) O 90 5,2 C 7,4 C
13.04.2012 02:06 7,4 C 86 % 1002,4 hPa 0,0 l/m 1,8 km/h (1 Bft) SO 135 5,2 C 7,4 C
13.04.2012 02:11 7,3 C 87 % 1002,4 hPa 0,0 l/m 0,0 km/h (0 Bft) O-SO 112 5,3 C 7,3 C
13.04.2012 02:16 7,3 C 87 % 1002,4 hPa 0,0 l/m 0,0 km/h (0 Bft) SO 135 5,3 C 7,3 C
13.04.2012 02:21 7,3 C 87 % 1002,5 hPa 0,0 l/m 1,4 km/h (1 Bft) O-SO 112 5,3 C 7,3 C
13.04.2012 02:26 7,3 C 87 % 1002,3 hPa 0,0 l/m 0,0 km/h (0 Bft) O-SO 112 5,3 C 7,3 C
13.04.2012 02:31 7,2 C 87 % 1002,3 hPa 0,0 l/m 2,5 km/h (1 Bft) SO 135 5,2 C 7,2 C
13.04.2012 02:36 7,2 C 87 % 1002,5 hPa 0,0 l/m 4,3 km/h (1 Bft) SO 135 5,2 C 7,2 C
13.04.2012 02:41 7,2 C 87 % 1002,5 hPa 0,0 l/m 0,0 km/h (0 Bft) SO 135 5,2 C 7,2 C
13.04.2012 02:46 7,2 C 87 % 1002,4 hPa 0,0 l/m 4,3 km/h (1 Bft) SO 135 5,2 C 7,2 C
13.04.2012 02:51 7,2 C 87 % 1002,4 hPa 0,0 l/m 0,0 km/h (0 Bft) SO 135 5,2 C 7,2 C
13.04.2012 02:56 7,2 C 87 % 1002,3 hPa 0,0 l/m 3,2 km/h (1 Bft) SO 135 5,2 C 7,2 C
13.04.2012 03:01 7,2 C 87 % 1002,3 hPa 0,0 l/m 0,0 km/h (0 Bft) SO 135 5,2 C 7,2 C
13.04.2012 03:06 7,1 C 88 % 1002,3 hPa 0,0 l/m 4,0 km/h (1 Bft) SO 135 5,2 C 7,1 C
13.04.2012 03:11 7,1 C 88 % 1002,4 hPa 0,0 l/m 0,0 km/h (0 Bft) SO 135 5,2 C 7,1 C
13.04.2012 03:16 7,1 C 88 % 1002,4 hPa 0,0 l/m 2,9 km/h (1 Bft) S-SO 157 5,2 C 7,1 C
13.04.2012 03:21 7,1 C 88 % 1002,5 hPa 0,0 l/m 2,5 km/h (1 Bft) SO 135 5,2 C 7,1 C
13.04.2012 03:26 7,1 C 88 % 1002,4 hPa 0,0 l/m 1,4 km/h (1 Bft) SO 135 5,2 C 7,1 C
13.04.2012 03:31 7,1 C 88 % 1002,4 hPa 0,0 l/m 2,2 km/h (1 Bft) SO 135 5,2 C 7,1 C
13.04.2012 03:36 7,1 C 88 % 1002,5 hPa 0,0 l/m 2,5 km/h (1 Bft) SO 135 5,2 C 7,1 C
13.04.2012 03:41 7,2 C 88 % 1002,4 hPa 0,0 l/m 4,0 km/h (1 Bft) S 180 5,3 C 7,2 C
13.04.2012 03:46 7,2 C 88 % 1002,5 hPa 0,0 l/m 4,0 km/h (1 Bft) S-SO 157 5,3 C 7,2 C
13.04.2012 03:51 7,2 C 88 % 1002,4 hPa 0,0 l/m 2,2 km/h (1 Bft) S-SO 157 5,3 C 7,2 C
13.04.2012 03:56 7,2 C 88 % 1002,2 hPa 0,0 l/m 0,0 km/h (0 Bft) S 180 5,3 C 7,2 C
13.04.2012 04:01 7,2 C 88 % 1002,2 hPa 0,0 l/m 1,1 km/h (1 Bft) S-SO 157 5,3 C 7,2 C
13.04.2012 04:06 7,2 C 87 % 1002,3 hPa 0,0 l/m 3,2 km/h (1 Bft) S 180 5,2 C 7,2 C
13.04.2012 04:11 7,2 C 87 % 1002,3 hPa 0,0 l/m 4,7 km/h (1 Bft) S-SW 202 5,2 C 6,7 C
13.04.2012 04:16 7,3 C 87 % 1002,3 hPa 0,0 l/m 2,5 km/h (1 Bft) S-SW 202 5,3 C 7,3 C
13.04.2012 04:21 7,3 C 87 % 1002,3 hPa 0,0 l/m 1,4 km/h (1 Bft) S-SO 157 5,3 C 7,3 C
13.04.2012 04:26 7,3 C 87 % 1002,3 hPa 0,5 l/m 2,2 km/h (1 Bft) S 180 5,3 C 7,3 C
13.04.2012 04:31 7,3 C 87 % 1002,2 hPa 0,0 l/m 3,2 km/h (1 Bft) S 180 5,3 C 7,3 C
13.04.2012 04:36 7,3 C 87 % 1002,1 hPa 0,0 l/m 1,1 km/h (1 Bft) S-SW 202 5,3 C 7,3 C
13.04.2012 04:41 7,4 C 87 % 1002,2 hPa 0,0 l/m 1,4 km/h (1 Bft) S-SW 202 5,4 C 7,4 C
13.04.2012 04:46 7,4 C 87 % 1002,3 hPa 0,0 l/m 3,6 km/h (1 Bft) SW 225 5,4 C 7,4 C
13.04.2012 04:51 7,4 C 87 % 1002,1 hPa 0,0 l/m 2,5 km/h (1 Bft) W-SW 247 5,4 C 7,4 C
13.04.2012 04:56 7,4 C 87 % 1002,0 hPa 0,0 l/m 3,2 km/h (1 Bft) S 180 5,4 C 7,4 C
13.04.2012 05:01 7,4 C 87 % 1002,2 hPa 0,0 l/m 4,3 km/h (1 Bft) SW 225 5,4 C 7,4 C
13.04.2012 05:06 7,4 C 87 % 1002,1 hPa 0,0 l/m 3,6 km/h (1 Bft) W-SW 247 5,4 C 7,4 C
13.04.2012 05:11 7,4 C 87 % 1002,2 hPa 0,0 l/m 4,0 km/h (1 Bft) W 270 5,4 C 7,4 C
13.04.2012 05:16 7,4 C 87 % 1002,1 hPa 0,0 l/m 2,5 km/h (1 Bft) W-SW 247 5,4 C 7,4 C
13.04.2012 05:21 7,4 C 87 % 1002,0 hPa 0,0 l/m 5,0 km/h (1 Bft) W-SW 247 5,4 C 6,8 C
13.04.2012 05:26 7,4 C 87 % 1002,2 hPa 0,0 l/m 4,0 km/h (1 Bft) W-SW 247 5,4 C 7,4 C
13.04.2012 05:31 7,4 C 87 % 1002,1 hPa 0,0 l/m 4,0 km/h (1 Bft) W-SW 247 5,4 C 7,4 C
13.04.2012 05:36 7,3 C 87 % 1002,2 hPa 0,0 l/m 9,4 km/h (2 Bft) W 270 5,3 C 5,5 C
13.04.2012 05:41 7,3 C 87 % 1002,3 hPa 0,0 l/m 3,2 km/h (1 Bft) S 180 5,3 C 7,3 C
13.04.2012 05:46 7,3 C 87 % 1002,2 hPa 0,0 l/m 4,7 km/h (1 Bft) W 270 5,3 C 6,8 C
13.04.2012 05:51 7,3 C 87 % 1002,2 hPa 0,0 l/m 7,6 km/h (2 Bft) W-NW 292 5,3 C 5,9 C
13.04.2012 05:56 7,2 C 87 % 1002,2 hPa 0,0 l/m 5,0 km/h (1 Bft) W 270 5,2 C 6,6 C
13.04.2012 06:01 7,2 C 87 % 1002,3 hPa 0,0 l/m 9,0 km/h (2 Bft) W 270 5,2 C 5,5 C
13.04.2012 06:06 7,1 C 87 % 1002,2 hPa 0,0 l/m 7,2 km/h (2 Bft) W 270 5,1 C 5,8 C
13.04.2012 06:11 7,0 C 87 % 1001,9 hPa 0,0 l/m 4,0 km/h (1 Bft) W 270 5,0 C 7,0 C
13.04.2012 06:16 7,0 C 87 % 1002,3 hPa 0,0 l/m 3,6 km/h (1 Bft) W 270 5,0 C 7,0 C
13.04.2012 06:21 6,9 C 87 % 1002,2 hPa 0,0 l/m 5,8 km/h (2 Bft) W-SW 247 4,9 C 6,0 C
13.04.2012 06:26 7,0 C 87 % 1002,3 hPa 0,0 l/m 7,6 km/h (2 Bft) W 270 5,0 C 5,6 C
13.04.2012 06:31 6,9 C 87 % 1002,2 hPa 0,0 l/m 4,3 km/h (1 Bft) W 270 4,9 C 6,9 C
13.04.2012 06:36 6,9 C 87 % 1002,3 hPa 0,0 l/m 3,2 km/h (1 Bft) W 270 4,9 C 6,9 C
13.04.2012 06:41 6,9 C 88 % 1002,3 hPa 0,0 l/m 3,6 km/h (1 Bft) W 270 5,1 C 6,9 C
13.04.2012 06:46 6,9 C 88 % 1002,3 hPa 0,0 l/m 10,4 km/h (2 Bft) W 270 5,1 C 4,8 C
13.04.2012 06:51 6,9 C 87 % 1002,3 hPa 0,0 l/m 4,7 km/h (1 Bft) W 270 4,9 C 6,3 C
13.04.2012 06:56 6,9 C 87 % 1002,4 hPa 0,0 l/m 12,2 km/h (2 Bft) W 270 4,9 C 4,5 C
13.04.2012 07:01 6,9 C 87 % 1002,5 hPa 0,0 l/m 5,0 km/h (1 Bft) N-NW 337 4,9 C 6,2 C
13.04.2012 07:06 6,9 C 87 % 1002,4 hPa 0,0 l/m 13,7 km/h (3 Bft) W 270 4,9 C 4,3 C
13.04.2012 07:11 6,9 C 87 % 1002,5 hPa 0,0 l/m 7,6 km/h (2 Bft) NW 315 4,9 C 5,5 C
13.04.2012 07:16 6,9 C 88 % 1002,5 hPa 0,0 l/m 9,7 km/h (2 Bft) NW 315 5,1 C 5,0 C
13.04.2012 07:21 6,9 C 88 % 1002,7 hPa 0,0 l/m 4,0 km/h (1 Bft) W 270 5,1 C 6,9 C
13.04.2012 07:26 6,8 C 88 % 1002,6 hPa 0,0 l/m 6,1 km/h (2 Bft) W 270 5,0 C 5,8 C
13.04.2012 07:31 6,8 C 88 % 1002,9 hPa 0,0 l/m 6,1 km/h (2 Bft) W-NW 292 5,0 C 5,8 C
13.04.2012 07:36 6,8 C 88 % 1002,7 hPa 0,0 l/m 6,5 km/h (2 Bft) N-NW 337 5,0 C 5,6 C
13.04.2012 07:41 6,8 C 88 % 1002,8 hPa 0,0 l/m 6,5 km/h (2 Bft) W 270 5,0 C 5,6 C
13.04.2012 07:46 6,8 C 88 % 1002,9 hPa 0,5 l/m 4,3 km/h (1 Bft) W 270 5,0 C 6,8 C
13.04.2012 07:51 6,8 C 88 % 1002,8 hPa 0,0 l/m 4,0 km/h (1 Bft) W 270 5,0 C 6,8 C
13.04.2012 07:56 6,8 C 88 % 1002,9 hPa 0,0 l/m 9,0 km/h (2 Bft) W 270 5,0 C 5,0 C
13.04.2012 08:01 6,8 C 88 % 1003,0 hPa 0,0 l/m 5,0 km/h (1 Bft) W 270 5,0 C 6,1 C
13.04.2012 08:06 6,8 C 88 % 1003,1 hPa 0,0 l/m 5,8 km/h (2 Bft) W 270 5,0 C 5,9 C
13.04.2012 08:11 6,8 C 89 % 1003,0 hPa 0,0 l/m 7,2 km/h (2 Bft) W 270 5,1 C 5,5 C
13.04.2012 08:16 6,8 C 89 % 1003,2 hPa 0,0 l/m 10,4 km/h (2 Bft) NW 315 5,1 C 4,7 C
13.04.2012 08:21 6,8 C 89 % 1003,1 hPa 0,0 l/m 9,7 km/h (2 Bft) W-NW 292 5,1 C 4,9 C
13.04.2012 08:26 6,8 C 89 % 1003,3 hPa 0,5 l/m 7,9 km/h (2 Bft) W 270 5,1 C 5,3 C
13.04.2012 08:31 6,8 C 89 % 1003,2 hPa 0,0 l/m 9,7 km/h (2 Bft) W 270 5,1 C 4,9 C
13.04.2012 08:36 6,8 C 89 % 1003,3 hPa 0,5 l/m 8,3 km/h (2 Bft) W-SW 247 5,1 C 5,2 C
13.04.2012 08:41 6,9 C 89 % 1003,4 hPa 0,0 l/m 5,8 km/h (2 Bft) W 270 5,2 C 6,0 C
13.04.2012 08:46 6,9 C 89 % 1003,4 hPa 0,0 l/m 12,2 km/h (2 Bft) W-NW 292 5,2 C 4,5 C
13.04.2012 08:51 6,9 C 89 % 1003,6 hPa 0,0 l/m 9,0 km/h (2 Bft) W-NW 292 5,2 C 5,1 C
13.04.2012 08:56 6,9 C 89 % 1003,4 hPa 0,5 l/m 8,6 km/h (2 Bft) W 270 5,2 C 5,2 C
13.04.2012 09:01 6,9 C 89 % 1003,6 hPa 0,0 l/m 8,6 km/h (2 Bft) W-NW 292 5,2 C 5,2 C
13.04.2012 09:06 6,9 C 89 % 1003,7 hPa 0,0 l/m 3,2 km/h (1 Bft) W 270 5,2 C 6,9 C
13.04.2012 09:11 6,9 C 89 % 1003,7 hPa 0,0 l/m 5,8 km/h (2 Bft) W 270 5,2 C 6,0 C
13.04.2012 09:16 7,0 C 89 % 1003,8 hPa 0,0 l/m 11,2 km/h (2 Bft) W 270 5,3 C 4,8 C
13.04.2012 09:21 7,0 C 89 % 1003,7 hPa 0,0 l/m 8,3 km/h (2 Bft) W 270 5,3 C 5,4 C
13.04.2012 09:26 7,0 C 89 % 1003,8 hPa 0,0 l/m 7,9 km/h (2 Bft) W-NW 292 5,3 C 5,5 C
13.04.2012 09:31 7,1 C 89 % 1003,9 hPa 0,5 l/m 10,4 km/h (2 Bft) W 270 5,4 C 5,1 C
13.04.2012 09:36 7,1 C 89 % 1004,0 hPa 0,0 l/m 11,5 km/h (2 Bft) NW 315 5,4 C 4,9 C
13.04.2012 09:41 7,1 C 89 % 1004,0 hPa 0,0 l/m 6,8 km/h (2 Bft) NW 315 5,4 C 5,9 C
13.04.2012 09:46 7,1 C 89 % 1004,1 hPa 0,0 l/m 6,1 km/h (2 Bft) W 270 5,4 C 6,1 C
13.04.2012 09:51 7,0 C 89 % 1003,9 hPa 0,0 l/m 9,0 km/h (2 Bft) W 270 5,3 C 5,3 C
13.04.2012 09:56 7,1 C 89 % 1004,0 hPa 0,0 l/m 6,1 km/h (2 Bft) W-NW 292 5,4 C 6,1 C
13.04.2012 10:01 7,1 C 89 % 1004,1 hPa 0,0 l/m 10,1 km/h (2 Bft) W-NW 292 5,4 C 5,1 C
13.04.2012 10:06 7,1 C 89 % 1004,2 hPa 0,0 l/m 14,0 km/h (3 Bft) W-NW 292 5,4 C 4,5 C
13.04.2012 10:11 7,1 C 89 % 1004,2 hPa 0,0 l/m 7,6 km/h (2 Bft) W 270 5,4 C 5,7 C
13.04.2012 10:16 7,1 C 88 % 1004,3 hPa 0,0 l/m 13,0 km/h (3 Bft) W-NW 292 5,2 C 4,6 C
13.04.2012 10:21 7,1 C 88 % 1004,4 hPa 0,0 l/m 14,4 km/h (3 Bft) W 270 5,2 C 4,4 C
13.04.2012 10:26 7,1 C 88 % 1004,4 hPa 0,0 l/m 11,5 km/h (2 Bft) W-NW 292 5,2 C 4,9 C
13.04.2012 10:31 7,1 C 88 % 1004,4 hPa 0,0 l/m 12,2 km/h (2 Bft) W-NW 292 5,2 C 4,8 C
13.04.2012 10:36 7,2 C 88 % 1004,3 hPa 0,0 l/m 4,0 km/h (1 Bft) W 270 5,3 C 7,2 C
13.04.2012 10:41 7,2 C 88 % 1004,3 hPa 0,0 l/m 9,0 km/h (2 Bft) NW 315 5,3 C 5,5 C
13.04.2012 10:46 7,3 C 88 % 1004,4 hPa 0,0 l/m 13,7 km/h (3 Bft) W 270 5,4 C 4,8 C
13.04.2012 10:51 7,3 C 87 % 1004,5 hPa 0,0 l/m 9,7 km/h (2 Bft) NW 315 5,3 C 5,5 C
13.04.2012 10:56 7,4 C 87 % 1004,5 hPa 0,0 l/m 15,5 km/h (3 Bft) NW 315 5,4 C 4,6 C
13.04.2012 11:01 7,5 C 87 % 1004,4 hPa 0,0 l/m 5,8 km/h (2 Bft) W 270 5,5 C 6,7 C
13.04.2012 11:06 7,6 C 86 % 1004,5 hPa 0,0 l/m 8,6 km/h (2 Bft) W 270 5,4 C 6,1 C
13.04.2012 11:11 7,6 C 86 % 1004,6 hPa 0,0 l/m 8,6 km/h (2 Bft) W-NW 292 5,4 C 6,1 C
13.04.2012 11:16 7,8 C 85 % 1004,7 hPa 0,0 l/m 16,9 km/h (3 Bft) W 270 5,4 C 5,0 C
13.04.2012 11:21 7,8 C 85 % 1004,6 hPa 0,0 l/m 14,8 km/h (3 Bft) W-NW 292 5,4 C 5,2 C
13.04.2012 11:26 7,8 C 84 % 1004,5 hPa 0,0 l/m 7,2 km/h (2 Bft) N-NW 337 5,3 C 6,6 C
13.04.2012 11:31 7,8 C 84 % 1004,6 hPa 0,0 l/m 6,1 km/h (2 Bft) W 270 5,3 C 6,9 C
13.04.2012 11:36 7,8 C 84 % 1004,6 hPa 0,0 l/m 16,9 km/h (3 Bft) W 270 5,3 C 5,0 C
13.04.2012 11:41 7,9 C 83 % 1004,7 hPa 0,0 l/m 4,7 km/h (1 Bft) W 270 5,2 C 7,5 C
13.04.2012 11:46 8,1 C 83 % 1004,7 hPa 0,0 l/m 14,4 km/h (3 Bft) W-NW 292 5,4 C 5,7 C
13.04.2012 11:51 8,2 C 82 % 1004,5 hPa 0,0 l/m 10,1 km/h (2 Bft) W-SW 247 5,3 C 6,5 C
13.04.2012 11:56 8,4 C 82 % 1004,6 hPa 0,0 l/m 14,8 km/h (3 Bft) W-NW 292 5,5 C 6,0 C
13.04.2012 12:01 8,5 C 80 % 1004,6 hPa 0,0 l/m 16,2 km/h (3 Bft) W 270 5,3 C 5,9 C
13.04.2012 12:06 8,7 C 80 % 1004,6 hPa 0,0 l/m 10,4 km/h (2 Bft) W 270 5,4 C 7,0 C
13.04.2012 12:11 8,8 C 79 % 1004,7 hPa 0,0 l/m 16,9 km/h (3 Bft) W-NW 292 5,4 C 6,2 C
13.04.2012 12:16 8,7 C 78 % 1005,0 hPa 0,0 l/m 3,6 km/h (1 Bft) W-NW 292 5,1 C 8,7 C
13.04.2012 12:21 8,8 C 78 % 1004,9 hPa 0,0 l/m 7,6 km/h (2 Bft) W-NW 292 5,2 C 7,7 C
13.04.2012 12:26 8,8 C 77 % 1005,0 hPa 0,0 l/m 10,1 km/h (2 Bft) W 270 5,0 C 7,2 C
13.04.2012 12:31 8,9 C 77 % 1005,1 hPa 0,0 l/m 18,4 km/h (3 Bft) W-NW 292 5,1 C 6,2 C
13.04.2012 12:36 8,9 C 77 % 1005,1 hPa 0,0 l/m 7,9 km/h (2 Bft) W-SW 247 5,1 C 7,7 C
13.04.2012 12:41 8,9 C 77 % 1005,1 hPa 0,0 l/m 12,6 km/h (3 Bft) W 270 5,1 C 6,9 C
13.04.2012 12:46 9,1 C 77 % 1005,0 hPa 0,0 l/m 13,3 km/h (3 Bft) W-NW 292 5,3 C 7,0 C
13.04.2012 12:51 9,2 C 76 % 1004,9 hPa 0,0 l/m 9,7 km/h (2 Bft) W-NW 292 5,2 C 7,7 C
13.04.2012 12:56 9,3 C 76 % 1004,8 hPa 0,0 l/m 2,9 km/h (1 Bft) W 270 5,3 C 9,3 C
13.04.2012 13:01 9,4 C 77 % 1005,1 hPa 0,0 l/m 14,8 km/h (3 Bft) SW 225 5,6 C 7,2 C
13.04.2012 13:06 9,6 C 76 % 1005,1 hPa 0,0 l/m 4,3 km/h (1 Bft) W-SW 247 5,6 C 9,6 C
13.04.2012 13:11 9,9 C 76 % 1005,0 hPa 0,0 l/m 13,0 km/h (3 Bft) W-NW 292 5,9 C 8,1 C
13.04.2012 13:16 9,9 C 74 % 1004,9 hPa 0,0 l/m 10,8 km/h (2 Bft) SW 225 5,5 C 8,4 C
13.04.2012 13:21 9,8 C 74 % 1005,0 hPa 0,0 l/m 8,6 km/h (2 Bft) W 270 5,4 C 8,7 C
13.04.2012 13:26 9,9 C 75 % 1005,0 hPa 0,0 l/m 15,5 km/h (3 Bft) W-SW 247 5,7 C 7,7 C
13.04.2012 13:31 10,2 C 74 % 1004,9 hPa 0,0 l/m 15,5 km/h (3 Bft) W-SW 247 5,8 C 10,2 C
13.04.2012 13:36 10,4 C 73 % 1004,8 hPa 0,0 l/m 7,9 km/h (2 Bft) W-SW 247 5,8 C 10,4 C
13.04.2012 13:41 10,8 C 72 % 1005,0 hPa 0,0 l/m 5,0 km/h (1 Bft) N-NW 337 6,0 C 10,8 C
13.04.2012 13:46 11,0 C 71 % 1004,9 hPa 0,0 l/m 6,8 km/h (2 Bft) W 270 5,9 C 11,0 C
13.04.2012 13:51 11,1 C 70 % 1004,8 hPa 0,0 l/m 13,7 km/h (3 Bft) W-SW 247 5,8 C 11,1 C
13.04.2012 13:56 10,9 C 70 % 1004,9 hPa 0,0 l/m 18,0 km/h (3 Bft) SW 225 5,6 C 10,9 C
13.04.2012 14:01 11,0 C 69 % 1004,8 hPa 0,0 l/m 6,1 km/h (2 Bft) W 270 5,5 C 11,0 C
13.04.2012 14:06 11,3 C 69 % 1004,8 hPa 0,0 l/m 22,3 km/h (4 Bft) W-SW 247 5,8 C 11,3 C
13.04.2012 14:11 11,4 C 68 % 1004,9 hPa 0,0 l/m 11,2 km/h (2 Bft) W 270 5,7 C 11,4 C
13.04.2012 14:16 11,8 C 67 % 1005,0 hPa 0,0 l/m 16,6 km/h (3 Bft) W-SW 247 5,9 C 11,8 C
13.04.2012 14:21 11,9 C 67 % 1005,0 hPa 0,0 l/m 10,1 km/h (2 Bft) W 270 6,0 C 11,9 C
13.04.2012 14:26 11,8 C 65 % 1005,0 hPa 0,0 l/m 15,5 km/h (3 Bft) W 270 5,4 C 11,8 C
13.04.2012 14:31 11,9 C 66 % 1004,9 hPa 0,0 l/m 9,0 km/h (2 Bft) W 270 5,8 C 11,9 C
13.04.2012 14:36 11,9 C 65 % 1004,9 hPa 0,0 l/m 9,7 km/h (2 Bft) W 270 5,5 C 11,9 C
13.04.2012 14:41 12,0 C 65 % 1004,9 hPa 0,0 l/m 14,4 km/h (3 Bft) W-SW 247 5,6 C 12,0 C
13.04.2012 14:46 12,2 C 64 % 1004,8 hPa 0,0 l/m 6,5 km/h (2 Bft) W 270 5,6 C 12,2 C
13.04.2012 14:51 12,3 C 64 % 1004,8 hPa 0,0 l/m 9,0 km/h (2 Bft) W 270 5,7 C 12,3 C
13.04.2012 14:56 12,4 C 63 % 1004,8 hPa 0,0 l/m 17,3 km/h (3 Bft) W 270 5,6 C 12,4 C
13.04.2012 15:01 12,4 C 63 % 1004,8 hPa 0,0 l/m 15,8 km/h (3 Bft) W-SW 247 5,6 C 12,4 C
13.04.2012 15:06 12,5 C 63 % 1004,9 hPa 0,0 l/m 6,8 km/h (2 Bft) SW 225 5,7 C 12,5 C
13.04.2012 15:11 12,5 C 63 % 1004,9 hPa 0,0 l/m 8,6 km/h (2 Bft) W-SW 247 5,7 C 12,5 C
13.04.2012 15:16 12,5 C 63 % 1004,9 hPa 0,0 l/m 13,3 km/h (3 Bft) NW 315 5,7 C 12,5 C
13.04.2012 15:21 12,4 C 60 % 1004,9 hPa 0,0 l/m 9,7 km/h (2 Bft) W 270 4,9 C 12,4 C
13.04.2012 15:26 12,3 C 61 % 1004,9 hPa 0,0 l/m 16,6 km/h (3 Bft) W-SW 247 5,0 C 12,3 C
13.04.2012 15:31 12,2 C 61 % 1004,9 hPa 0,0 l/m 8,3 km/h (2 Bft) W 270 4,9 C 12,2 C
13.04.2012 15:36 12,3 C 60 % 1004,7 hPa 0,0 l/m 16,6 km/h (3 Bft) W 270 4,8 C 12,3 C
13.04.2012 15:41 12,4 C 60 % 1004,7 hPa 0,0 l/m 15,1 km/h (3 Bft) W-NW 292 4,9 C 12,4 C
13.04.2012 15:46 12,4 C 60 % 1004,8 hPa 0,0 l/m 26,6 km/h (4 Bft) W-SW 247 4,9 C 12,4 C
13.04.2012 15:51 12,4 C 59 % 1004,8 hPa 0,0 l/m 7,6 km/h (2 Bft) S-SW 202 4,6 C 12,4 C
13.04.2012 15:56 12,5 C 60 % 1004,9 hPa 0,0 l/m 23,8 km/h (4 Bft) W 270 5,0 C 12,5 C
13.04.2012 16:01 12,8 C 60 % 1004,8 hPa 0,0 l/m 6,8 km/h (2 Bft) W-SW 247 5,2 C 12,8 C
13.04.2012 16:06 12,9 C 60 % 1004,9 hPa 0,0 l/m 24,5 km/h (4 Bft) W 270 5,3 C 12,9 C
13.04.2012 16:11 13,2 C 59 % 1004,9 hPa 0,0 l/m 15,1 km/h (3 Bft) W-NW 292 5,4 C 13,2 C
13.04.2012 16:16 13,3 C 57 % 1004,9 hPa 0,0 l/m 8,3 km/h (2 Bft) W-SW 247 5,0 C 13,3 C
13.04.2012 16:21 13,3 C 58 % 1005,0 hPa 0,0 l/m 8,3 km/h (2 Bft) NO 45 5,2 C 13,3 C
13.04.2012 16:26 12,8 C 58 % 1004,9 hPa 0,0 l/m 11,9 km/h (2 Bft) N-NW 337 4,7 C 12,8 C
13.04.2012 16:31 12,1 C 59 % 1005,0 hPa 0,0 l/m 6,1 km/h (2 Bft) NO 45 4,3 C 12,1 C
13.04.2012 16:36 11,7 C 60 % 1005,1 hPa 0,0 l/m 11,2 km/h (2 Bft) N-NO 22 4,2 C 11,7 C
13.04.2012 16:41 11,5 C 60 % 1005,0 hPa 0,0 l/m 6,5 km/h (2 Bft) W 270 4,0 C 11,5 C
13.04.2012 16:46 11,9 C 60 % 1005,0 hPa 0,0 l/m 7,6 km/h (2 Bft) NW 315 4,4 C 11,9 C
13.04.2012 16:51 12,1 C 58 % 1004,9 hPa 0,0 l/m 10,8 km/h (2 Bft) NW 315 4,1 C 12,1 C
13.04.2012 16:56 12,4 C 57 % 1005,2 hPa 0,0 l/m 5,8 km/h (2 Bft) W-SW 247 4,1 C 12,4 C
13.04.2012 17:01 12,5 C 55 % 1005,1 hPa 0,0 l/m 9,7 km/h (2 Bft) W 270 3,7 C 12,5 C
13.04.2012 17:06 12,4 C 57 % 1005,1 hPa 0,0 l/m 17,3 km/h (3 Bft) W-NW 292 4,1 C 12,4 C
13.04.2012 17:11 12,1 C 56 % 1005,0 hPa 0,0 l/m 7,6 km/h (2 Bft) W-NW 292 3,6 C 12,1 C
13.04.2012 17:16 11,9 C 56 % 1005,1 hPa 0,0 l/m 12,2 km/h (2 Bft) W 270 3,4 C 11,9 C
13.04.2012 17:21 11,8 C 57 % 1005,0 hPa 0,0 l/m 12,6 km/h (3 Bft) W 270 3,6 C 11,8 C
13.04.2012 17:26 11,8 C 57 % 1005,0 hPa 0,0 l/m 16,6 km/h (3 Bft) W-NW 292 3,6 C 11,8 C
13.04.2012 17:31 12,1 C 57 % 1005,0 hPa 0,0 l/m 6,5 km/h (2 Bft) NW 315 3,8 C 12,1 C
13.04.2012 17:36 12,2 C 57 % 1005,0 hPa 0,0 l/m 0,0 km/h (0 Bft) O-SO 112 3,9 C 12,2 C
13.04.2012 17:41 11,9 C 55 % 1005,0 hPa 0,0 l/m 4,0 km/h (1 Bft) N 360 3,2 C 11,9 C
13.04.2012 17:46 11,4 C 57 % 1005,0 hPa 0,0 l/m 3,2 km/h (1 Bft) NW 315 3,2 C 11,4 C
13.04.2012 17:51 11,1 C 58 % 1005,1 hPa 0,0 l/m 5,4 km/h (1 Bft) N-NW 337 3,2 C 11,1 C
13.04.2012 17:56 10,9 C 59 % 1005,1 hPa 0,0 l/m 1,8 km/h (1 Bft) O-NO 67 3,2 C 10,9 C
13.04.2012 18:01 10,8 C 60 % 1005,2 hPa 0,0 l/m 10,1 km/h (2 Bft) N-NW 337 3,4 C 10,8 C
13.04.2012 18:06 10,9 C 60 % 1005,2 hPa 0,0 l/m 4,0 km/h (1 Bft) SW 225 3,4 C 10,9 C
13.04.2012 18:11 10,9 C 60 % 1005,3 hPa 0,0 l/m 3,2 km/h (1 Bft) NW 315 3,4 C 10,9 C
13.04.2012 18:16 10,9 C 59 % 1005,4 hPa 0,0 l/m 4,7 km/h (1 Bft) N 360 3,2 C 10,9 C
13.04.2012 18:21 10,9 C 60 % 1005,4 hPa 0,0 l/m 4,0 km/h (1 Bft) NW 315 3,4 C 10,9 C
13.04.2012 18:26 11,1 C 59 % 1005,2 hPa 0,0 l/m 3,6 km/h (1 Bft) W 270 3,4 C 11,1 C
13.04.2012 18:31 11,4 C 59 % 1005,1 hPa 0,0 l/m 3,6 km/h (1 Bft) NW 315 3,7 C 11,4 C
13.04.2012 18:36 11,4 C 57 % 1005,1 hPa 0,0 l/m 7,2 km/h (2 Bft) N 360 3,2 C 11,4 C
13.04.2012 18:41 11,1 C 56 % 1005,1 hPa 0,0 l/m 8,6 km/h (2 Bft) N-NW 337 2,7 C 11,1 C
13.04.2012 18:46 10,9 C 57 % 1005,2 hPa 0,0 l/m 2,9 km/h (1 Bft) O-NO 67 2,7 C 10,9 C
13.04.2012 18:51 10,9 C 58 % 1005,2 hPa 0,0 l/m 3,2 km/h (1 Bft) N-NO 22 3,0 C 10,9 C
13.04.2012 18:56 10,8 C 59 % 1005,2 hPa 0,0 l/m 5,0 km/h (1 Bft) NW 315 3,1 C 10,8 C
13.04.2012 19:01 10,9 C 59 % 1005,3 hPa 0,0 l/m 5,0 km/h (1 Bft) NO 45 3,2 C 10,9 C
13.04.2012 19:06 10,7 C 57 % 1005,3 hPa 0,0 l/m 6,1 km/h (2 Bft) N 360 2,5 C 10,7 C
13.04.2012 19:11 10,4 C 57 % 1005,3 hPa 0,0 l/m 7,9 km/h (2 Bft) N 360 2,3 C 10,4 C
13.04.2012 19:16 10,2 C 57 % 1005,4 hPa 0,0 l/m 3,6 km/h (1 Bft) NO 45 2,1 C 10,2 C
13.04.2012 19:21 10,1 C 58 % 1005,5 hPa 0,0 l/m 3,2 km/h (1 Bft) N 360 2,2 C 10,1 C
13.04.2012 19:26 10,1 C 58 % 1005,5 hPa 0,0 l/m 4,0 km/h (1 Bft) N 360 2,2 C 10,1 C
13.04.2012 19:31 9,9 C 58 % 1005,5 hPa 0,0 l/m 3,6 km/h (1 Bft) N-NO 22 2,0 C 9,9 C
13.04.2012 19:36 9,9 C 58 % 1005,5 hPa 0,0 l/m 0,0 km/h (0 Bft) N 360 2,0 C 9,9 C
13.04.2012 19:41 9,9 C 59 % 1005,4 hPa 0,0 l/m 2,9 km/h (1 Bft) NO 45 2,3 C 9,9 C
13.04.2012 19:46 9,8 C 59 % 1005,5 hPa 0,0 l/m 3,6 km/h (1 Bft) N-NO 22 2,2 C 9,8 C
13.04.2012 19:51 9,6 C 60 % 1005,6 hPa 0,0 l/m 0,0 km/h (0 Bft) N-NO 22 2,2 C 9,6 C
13.04.2012 19:56 9,5 C 60 % 1005,6 hPa 0,0 l/m 0,0 km/h (0 Bft) NW 315 2,1 C 9,5 C
13.04.2012 20:01 9,4 C 61 % 1005,8 hPa 0,0 l/m 3,6 km/h (1 Bft) O-NO 67 2,3 C 9,4 C
13.04.2012 20:06 9,3 C 62 % 1005,8 hPa 0,0 l/m 0,0 km/h (0 Bft) N-NO 22 2,4 C 9,3 C
13.04.2012 20:11 9,3 C 62 % 1005,9 hPa 0,0 l/m 0,0 km/h (0 Bft) N 360 2,4 C 9,3 C
13.04.2012 20:16 9,2 C 63 % 1005,9 hPa 0,0 l/m 0,0 km/h (0 Bft) NO 45 2,5 C 9,2 C
13.04.2012 20:21 9,1 C 63 % 1005,9 hPa 0,0 l/m 0,0 km/h (0 Bft) N-NO 22 2,4 C 9,1 C
13.04.2012 20:26 8,9 C 63 % 1005,9 hPa 0,0 l/m 0,0 km/h (0 Bft) N 360 2,2 C 8,9 C
13.04.2012 20:31 8,9 C 64 % 1006,0 hPa 0,0 l/m 1,4 km/h (1 Bft) N-NO 22 2,5 C 8,9 C
13.04.2012 20:36 8,8 C 64 % 1006,1 hPa 0,0 l/m 0,0 km/h (0 Bft) N 360 2,4 C 8,8 C
13.04.2012 20:41 8,7 C 65 % 1006,2 hPa 0,0 l/m 0,0 km/h (0 Bft) N-NW 337 2,5 C 8,7 C
13.04.2012 20:46 8,7 C 65 % 1006,3 hPa 0,0 l/m 0,0 km/h (0 Bft) N-NW 337 2,5 C 8,7 C
13.04.2012 20:51 8,6 C 66 % 1006,3 hPa 0,0 l/m 0,0 km/h (0 Bft) N 360 2,6 C 8,6 C
13.04.2012 20:56 8,5 C 66 % 1006,3 hPa 0,0 l/m 0,0 km/h (0 Bft) N 360 2,5 C 8,5 C
13.04.2012 21:01 8,5 C 66 % 1006,4 hPa 0,0 l/m 0,0 km/h (0 Bft) N 360 2,5 C 8,5 C
13.04.2012 21:06 8,4 C 66 % 1006,5 hPa 0,0 l/m 0,0 km/h (0 Bft) N 360 2,4 C 8,4 C
13.04.2012 21:11 8,3 C 67 % 1006,5 hPa 0,0 l/m 0,0 km/h (0 Bft) N 360 2,5 C 8,3 C
13.04.2012 21:16 8,2 C 67 % 1006,5 hPa 0,0 l/m 0,0 km/h (0 Bft) N 360 2,4 C 8,2 C
13.04.2012 21:21 8,1 C 68 % 1006,5 hPa 0,0 l/m 0,0 km/h (0 Bft) N-NW 337 2,6 C 8,1 C
13.04.2012 21:26 8,1 C 68 % 1006,5 hPa 0,0 l/m 0,0 km/h (0 Bft) N-NW 337 2,6 C 8,1 C
13.04.2012 21:31 7,9 C 69 % 1006,4 hPa 0,0 l/m 0,0 km/h (0 Bft) N-NW 337 2,6 C 7,9 C
13.04.2012 21:36 7,8 C 69 % 1006,4 hPa 0,0 l/m 0,0 km/h (0 Bft) N-NW 337 2,5 C 7,8 C
13.04.2012 21:41 7,8 C 69 % 1006,3 hPa 0,0 l/m 0,0 km/h (0 Bft) N-NW 337 2,5 C 7,8 C
13.04.2012 21:46 7,5 C 70 % 1006,3 hPa 0,0 l/m 0,0 km/h (0 Bft) N-NW 337 2,4 C 7,5 C
13.04.2012 21:51 7,3 C 70 % 1006,3 hPa 0,0 l/m 0,0 km/h (0 Bft) N-NW 337 2,2 C 7,3 C
13.04.2012 21:56 7,3 C 71 % 1006,3 hPa 0,0 l/m 0,0 km/h (0 Bft) N-NW 337 2,4 C 7,3 C
13.04.2012 22:01 7,2 C 71 % 1006,2 hPa 0,0 l/m 0,0 km/h (0 Bft) N-NW 337 2,3 C 7,2 C
13.04.2012 22:06 7,2 C 71 % 1006,5 hPa 0,0 l/m 0,0 km/h (0 Bft) N-NW 337 2,3 C 7,2 C
13.04.2012 22:11 7,1 C 71 % 1006,4 hPa 0,0 l/m 0,0 km/h (0 Bft) N-NW 337 2,2 C 7,1 C
13.04.2012 22:16 7,0 C 72 % 1006,5 hPa 0,0 l/m 0,0 km/h (0 Bft) N-NW 337 2,3 C 7,0 C
13.04.2012 22:21 6,9 C 72 % 1006,4 hPa 0,0 l/m 0,0 km/h (0 Bft) N-NW 337 2,2 C 6,9 C
13.04.2012 22:26 6,9 C 72 % 1006,4 hPa 0,0 l/m 0,0 km/h (0 Bft) N-NW 337 2,2 C 6,9 C
13.04.2012 22:31 6,8 C 72 % 1006,3 hPa 0,0 l/m 0,0 km/h (0 Bft) N-NW 337 2,1 C 6,8 C
13.04.2012 22:36 6,6 C 73 % 1006,3 hPa 0,0 l/m 0,0 km/h (0 Bft) N-NW 337 2,1 C 6,6 C
13.04.2012 22:41 6,5 C 73 % 1006,5 hPa 0,0 l/m 0,0 km/h (0 Bft) N-NW 337 2,0 C 6,5 C
13.04.2012 22:46 6,4 C 74 % 1006,6 hPa 0,0 l/m 0,0 km/h (0 Bft) N-NW 337 2,1 C 6,4 C
13.04.2012 22:51 6,4 C 74 % 1006,4 hPa 0,0 l/m 0,0 km/h (0 Bft) N-NW 337 2,1 C 6,4 C
13.04.2012 22:56 6,3 C 74 % 1006,3 hPa 0,0 l/m 0,0 km/h (0 Bft) N-NW 337 2,0 C 6,3 C
13.04.2012 23:01 6,2 C 74 % 1006,3 hPa 0,0 l/m 0,0 km/h (0 Bft) N-NW 337 1,9 C 6,2 C
13.04.2012 23:06 6,2 C 75 % 1006,4 hPa 0,0 l/m 0,0 km/h (0 Bft) N-NW 337 2,1 C 6,2 C
13.04.2012 23:11 6,1 C 75 % 1006,5 hPa 0,0 l/m 0,0 km/h (0 Bft) N-NW 337 2,0 C 6,1 C
13.04.2012 23:16 6,1 C 75 % 1006,3 hPa 0,0 l/m 0,0 km/h (0 Bft) N-NW 337 2,0 C 6,1 C
13.04.2012 23:21 5,9 C 76 % 1006,5 hPa 0,0 l/m 0,0 km/h (0 Bft) N-NW 337 2,0 C 5,9 C
13.04.2012 23:26 5,9 C 76 % 1006,4 hPa 0,0 l/m 0,0 km/h (0 Bft) N-NW 337 2,0 C 5,9 C
13.04.2012 23:31 5,8 C 76 % 1006,3 hPa 0,0 l/m 0,0 km/h (0 Bft) N-NW 337 1,9 C 5,8 C
13.04.2012 23:36 5,8 C 76 % 1006,3 hPa 0,0 l/m 0,0 km/h (0 Bft) N-NW 337 1,9 C 5,8 C
13.04.2012 23:41 5,6 C 77 % 1006,4 hPa 0,0 l/m 0,0 km/h (0 Bft) N-NW 337 1,9 C 5,6 C
13.04.2012 23:46 5,6 C 77 % 1006,4 hPa 0,0 l/m 0,0 km/h (0 Bft) N-NW 337 1,9 C 5,6 C
13.04.2012 23:51 5,6 C 77 % 1006,4 hPa 0,0 l/m 0,0 km/h (0 Bft) N-NW 337 1,9 C 5,6 C
13.04.2012 23:56 5,5 C 77 % 1006,4 hPa 0,0 l/m 0,0 km/h (0 Bft) N-NW 337 1,8 C 5,5 C
_ Min-Zeit 23:56 17:01 06:11 - 00:01 - - 23:56 07:06
Minimum _ 5,5 C 55 % 1001,9 hPa - 0,0 km/h (0 Bft) - - 1,8 C 4,3 C
_ Max-Zeit 16:16 08:11 22:46 04:26 15:46 - - 14:21 16:16
Maximum _ 13,3 C 89 % 1006,6 hPa 0,5 l/m 26,6 km/h
W-SW (4 Bft)
- - 6,0 C 13,3 C
Durchschnitt _ 8,6 C 76 % 1004,2 hPa #3,1 l/m 5,9 km/h (2 Bft) W - 4,5 C 8,1 C
(c) by David Heller